| time (UTC) | temp F | wind direction | speed MPH | gust MPH | rain 1hr in | rain 24hr in | rain mn in | humidity % | barometer mb |
| 20260510174558 | 65 | 93 | 3.0 | 9.0 | 0.00 | 0.02 | 0.00 | 42 | 1023.8 |
| 20260510173103 | 64 | 23 | 2.0 | 6.0 | 0.00 | 0.02 | 0.00 | 44 | 1024.1 |
| 20260510171603 | 63 | 34 | 3.0 | 9.0 | 0.00 | 0.02 | 0.00 | 44 | 1024.1 |
| 20260510170057 | 61 | 73 | 3.0 | 9.0 | 0.00 | 0.02 | 0.00 | 46 | 1024.2 |
| 20260510164602 | 61 | 79 | 2.0 | 8.0 | 0.00 | 0.02 | 0.00 | 46 | 1024.4 |
| 20260510163059 | 60 | 84 | 3.0 | 10.0 | 0.00 | 0.02 | 0.00 | 46 | 1024.0 |
| 20260510161604 | 60 | 71 | 4.0 | 11.0 | 0.00 | 0.02 | 0.00 | 45 | 1023.9 |
| 20260510160059 | 59 | 74 | 3.0 | 7.0 | 0.00 | 0.02 | 0.00 | 50 | 1024.0 |
| 20260510154602 | 59 | 351 | 3.0 | 9.0 | 0.00 | 0.02 | 0.00 | 52 | 1023.8 |
| 20260510153102 | 58 | 44 | 3.0 | 8.0 | 0.00 | 0.02 | 0.00 | 56 | 1023.6 |
| 20260510151558 | 57 | 79 | 2.0 | 7.0 | 0.00 | 0.02 | 0.00 | 59 | 1023.2 |
| 20260510150126 | 56 | 66 | 3.0 | 9.0 | 0.00 | 0.02 | 0.00 | 62 | 1023.0 |
| 20260510144603 | 55 | 60 | 3.0 | 6.0 | 0.00 | 0.02 | 0.00 | 68 | 1023.4 |
| 20260510143106 | 54 | 347 | 1.0 | 3.0 | 0.00 | 0.02 | 0.00 | 71 | 1023.9 |
| 20260510141608 | 54 | 0 | 0.0 | 2.0 | 0.00 | 0.02 | 0.00 | 73 | 1023.9 |
| 20260510134610 | 54 | 0 | 0.0 | 2.0 | 0.00 | 0.02 | 0.00 | 75 | 1023.4 |
| 20260510133112 | 53 | 72 | 0.0 | 2.0 | 0.00 | 0.02 | 0.00 | 76 | 1022.4 |
| 20260510131610 | 54 | 61 | 1.0 | 4.0 | 0.00 | 0.02 | 0.00 | 76 | 1022.6 |
| 20260510130110 | 54 | 50 | 1.0 | 3.0 | 0.00 | 0.02 | 0.00 | 73 | 1022.4 |
| 20260510124608 | 54 | 0 | 0.0 | 2.0 | 0.00 | 0.02 | 0.00 | 72 | 1022.3 |
| 20260510123102 | 54 | 0 | 0.0 | 3.0 | 0.00 | 0.02 | 0.00 | 72 | 1022.0 |
| 20260510121558 | 54 | 0 | 0.0 | 3.0 | 0.00 | 0.02 | 0.00 | 75 | 1021.7 |
| 20260510120058 | 55 | 2 | 2.0 | 8.0 | 0.00 | 0.02 | 0.00 | 74 | 1020.4 |
| 20260510114601 | 54 | 32 | 2.0 | 8.0 | 0.00 | 0.02 | 0.00 | 77 | 1019.8 |
| 20260510113057 | 57 | 322 | 6.0 | 16.0 | 0.00 | 0.02 | 0.00 | 71 | 1019.5 |
| 20260510111606 | 58 | 283 | 4.0 | 10.0 | 0.00 | 0.02 | 0.00 | 63 | 1019.0 |
| 20260510110059 | 58 | 71 | 3.0 | 10.0 | 0.00 | 0.02 | 0.00 | 62 | 1018.8 |
| 20260510104607 | 59 | 27 | 4.0 | 13.0 | 0.00 | 0.02 | 0.00 | 62 | 1018.3 |
| 20260510103104 | 59 | 44 | 5.0 | 13.0 | 0.00 | 0.02 | 0.00 | 62 | 1018.4 |
| 20260510101600 | 58 | 23 | 4.0 | 10.0 | 0.00 | 0.02 | 0.00 | 64 | 1018.4 |
| 20260510100057 | 58 | 304 | 5.0 | 13.0 | 0.00 | 0.02 | 0.00 | 65 | 1018.2 |
| 20260510094613 | 59 | 13 | 4.0 | 16.0 | 0.00 | 0.02 | 0.00 | 65 | 1018.1 |
| 20260510093119 | 59 | 30 | 5.0 | 12.0 | 0.00 | 0.02 | 0.00 | 64 | 1018.0 |
| 20260510091557 | 59 | 31 | 4.0 | 10.0 | 0.00 | 0.02 | 0.00 | 64 | 1017.8 |
| 20260510090059 | 60 | 309 | 5.0 | 15.0 | 0.00 | 0.02 | 0.00 | 64 | 1017.7 |
| 20260510084557 | 60 | 36 | 4.0 | 10.0 | 0.00 | 0.02 | 0.00 | 63 | 1017.5 |
| 20260510083106 | 60 | 6 | 4.0 | 11.0 | 0.00 | 0.02 | 0.00 | 63 | 1017.3 |
| 20260510081558 | 60 | 75 | 3.0 | 8.0 | 0.00 | 0.02 | 0.00 | 63 | 1017.0 |
| 20260510080100 | 60 | 4 | 4.0 | 10.0 | 0.00 | 0.02 | 0.00 | 63 | 1016.9 |
| 20260510074602 | 60 | 75 | 4.0 | 8.0 | 0.00 | 0.02 | 0.00 | 64 | 1016.9 |
| 20260510073058 | 60 | 74 | 2.0 | 9.0 | 0.00 | 0.02 | 0.00 | 65 | 1016.6 |
| 20260510071559 | 60 | 16 | 3.0 | 9.0 | 0.00 | 0.02 | 0.00 | 65 | 1016.6 |
| 20260510070056 | 61 | 42 | 3.0 | 7.0 | 0.00 | 0.02 | 0.00 | 65 | 1016.5 |
| 20260510064604 | 61 | 40 | 2.0 | 6.0 | 0.00 | 0.02 | 0.00 | 65 | 1016.1 |
| 20260510063057 | 61 | 31 | 2.0 | 5.0 | 0.00 | 0.02 | 0.00 | 65 | 1016.0 |
| 20260510061600 | 62 | 35 | 2.0 | 6.0 | 0.00 | 0.02 | 0.00 | 63 | 1015.7 |
| 20260510060059 | 62 | 62 | 1.0 | 5.0 | 0.00 | 0.02 | 0.00 | 63 | 1015.4 |
| 20260510054557 | 63 | 25 | 1.0 | 4.0 | 0.00 | 0.02 | 0.00 | 62 | 1015.2 |
| 20260510053055 | 64 | 59 | 3.0 | 5.0 | 0.00 | 0.02 | 0.00 | 61 | 1014.9 |
| 20260510051606 | 64 | 44 | 1.0 | 4.0 | 0.00 | 0.02 | 0.00 | 61 | 1014.7 |
| 20260510050057 | 64 | 39 | 1.0 | 3.0 | 0.00 | 0.02 | 0.00 | 61 | 1014.6 |
| 20260510044617 | 65 | 100 | 2.0 | 6.0 | 0.00 | 0.02 | 0.02 | 61 | 1014.4 |
| 20260510043058 | 66 | 347 | 2.0 | 5.0 | 0.00 | 0.02 | 0.02 | 60 | 1014.3 |
| 20260510041558 | 66 | 86 | 1.0 | 6.0 | 0.00 | 0.02 | 0.02 | 59 | 1014.0 |
| 20260510040058 | 67 | 70 | 2.0 | 7.0 | 0.00 | 0.02 | 0.02 | 58 | 1013.9 |
| 20260510034557 | 67 | 80 | 2.0 | 7.0 | 0.00 | 0.02 | 0.02 | 56 | 1013.9 |
| 20260510033110 | 68 | 120 | 3.0 | 8.0 | 0.00 | 0.02 | 0.02 | 56 | 1013.7 |
| 20260510031557 | 68 | 119 | 2.0 | 9.0 | 0.00 | 0.02 | 0.02 | 56 | 1013.5 |
| 20260510030106 | 69 | 44 | 2.0 | 5.0 | 0.00 | 0.02 | 0.02 | 54 | 1013.2 |
| 20260510024600 | 69 | 15 | 1.0 | 6.0 | 0.00 | 0.02 | 0.02 | 53 | 1012.9 |
| 20260510023059 | 70 | 74 | 2.0 | 7.0 | 0.00 | 0.02 | 0.02 | 52 | 1012.1 |
| 20260510021613 | 70 | 43 | 1.0 | 5.0 | 0.00 | 0.02 | 0.02 | 50 | 1011.9 |
| 20260510020059 | 71 | 53 | 1.0 | 5.0 | 0.00 | 0.02 | 0.02 | 49 | 1011.1 |
| 20260510014600 | 72 | 127 | 2.0 | 8.0 | 0.00 | 0.02 | 0.02 | 48 | 1011.0 |
| 20260510013105 | 71 | 0 | 0.0 | 2.0 | 0.02 | 0.02 | 0.02 | 54 | 1011.0 |
| 20260510011559 | 70 | 0 | 0.0 | 2.0 | 0.02 | 0.02 | 0.02 | 59 | 1012.5 |
| 20260510010104 | 68 | 41 | 0.0 | 3.0 | 0.02 | 0.02 | 0.02 | 60 | 1012.7 |
| 20260510004557 | 71 | 359 | 3.0 | 8.0 | 0.02 | 0.02 | 0.02 | 53 | 1012.1 |
| 20260510003101 | 75 | 163 | 3.0 | 12.0 | 0.00 | 0.00 | 0.00 | 45 | 1012.2 |
| 20260510001600 | 80 | 151 | 0.0 | 1.0 | 0.00 | 0.00 | 0.00 | 28 | 1010.1 |
| 20260510000058 | 82 | 0 | 0.0 | 2.0 | 0.00 | 0.00 | 0.00 | 25 | 1009.0 |
| 20260509234600 | 83 | 0 | 1.0 | 4.0 | 0.00 | 0.00 | 0.00 | 24 | 1008.4 |
| 20260509233100 | 83 | 125 | 1.0 | 3.0 | 0.00 | 0.00 | 0.00 | 24 | 1008.5 |
| 20260509231604 | 84 | 0 | 0.0 | 2.0 | 0.00 | 0.00 | 0.00 | 22 | 1008.7 |
| 20260509230100 | 86 | 115 | 0.0 | 3.0 | 0.00 | 0.00 | 0.00 | 22 | 1008.6 |
| 20260509224601 | 88 | 145 | 2.0 | 6.0 | 0.00 | 0.00 | 0.00 | 21 | 1008.5 |
| 20260509223058 | 88 | 195 | 0.0 | 1.0 | 0.00 | 0.00 | 0.00 | 21 | 1008.9 |
| 20260509221557 | 88 | 225 | 1.0 | 8.0 | 0.00 | 0.00 | 0.00 | 23 | 1009.1 |
| 20260509220107 | 88 | 280 | 1.0 | 6.0 | 0.00 | 0.00 | 0.00 | 22 | 1009.0 |
| 20260509214603 | 89 | 206 | 1.0 | 6.0 | 0.00 | 0.00 | 0.00 | 24 | 1008.9 |
| 20260509213134 | 89 | 111 | 1.0 | 6.0 | 0.00 | 0.00 | 0.00 | 24 | 1009.0 |
| 20260509211600 | 90 | 207 | 1.0 | 5.0 | 0.00 | 0.00 | 0.00 | 21 | 1009.2 |
| 20260509210107 | 89 | 123 | 2.0 | 7.0 | 0.00 | 0.00 | 0.00 | 23 | 1009.3 |
| 20260509204558 | 88 | 194 | 1.0 | 8.0 | 0.00 | 0.00 | 0.00 | 23 | 1009.5 |
| 20260509203101 | 88 | 208 | 0.0 | 7.0 | 0.00 | 0.00 | 0.00 | 22 | 1009.6 |
| 20260509201559 | 88 | 0 | 1.0 | 5.0 | 0.00 | 0.00 | 0.00 | 23 | 1009.7 |
| 20260509200105 | 88 | 280 | 1.0 | 5.0 | 0.00 | 0.00 | 0.00 | 24 | 1009.9 |
| 20260509194600 | 89 | 270 | 1.0 | 5.0 | 0.00 | 0.00 | 0.00 | 24 | 1010.0 |
| 20260509193058 | 88 | 143 | 1.0 | 5.0 | 0.00 | 0.00 | 0.00 | 23 | 1010.1 |
| 20260509191558 | 88 | 112 | 2.0 | 5.0 | 0.00 | 0.00 | 0.00 | 25 | 1010.2 |
| 20260509190101 | 87 | 261 | 1.0 | 9.0 | 0.00 | 0.00 | 0.00 | 27 | 1010.5 |
| 20260509184600 | 84 | 285 | 0.0 | 9.0 | 0.00 | 0.00 | 0.00 | 26 | 1010.6 |
| 20260509183104 | 83 | 186 | 1.0 | 6.0 | 0.00 | 0.00 | 0.00 | 29 | 1010.9 |
| 20260509181602 | 82 | 176 | 0.0 | 3.0 | 0.00 | 0.00 | 0.00 | 30 | 1011.2 |
| 20260509180100 | 81 | 162 | 0.0 | 8.0 | 0.00 | 0.00 | 0.00 | 30 | 1011.4 |